Terminal Aerodrome Forecast
Issued by NWS

Home | Current Version | Previous Version | Text Only | Print | Product List | Glossary On
Versions: 1 2 3 4 5 6 7 8 9 10 11 12 13 14 15 16 17 18 19 20 21 22 23 24
000
FTUS44 KFWD 170200 AAA
TAFGKY
TAF AMD
KGKY 170258Z 1703/1724 12009KT P6SM BKN250
     FM170900 12009KT P6SM OVC012
     FM171700 15010KT P6SM VCSH BKN025 OVC050=

USA.gov is the U.S. government's official web portal to all federal, state and local government web resources and services.